Time;durP1;ratioP1;P1;durP2;ratioP2;P2;SDS_P1;SDS_P2;PMS_P1;PMS_P2;Temp;Humidity;BMP_temperature;BMP_pressure;BME280_temperature;BME280_humidity;BME280_pressure;Samples;Min_cycle;Max_cycle;Signal;HPM_P1;HPM_P2
2021/03/30 00:00:31;;;;;;;11.23;6.57;;;7.70;79.10;;;;;;5089548;28;20038;-66
2021/03/30 00:02:57;;;;;;;8.80;6.03;;;7.70;79.20;;;;;;5094453;28;20784;-66
2021/03/30 00:05:23;;;;;;;11.80;6.25;;;7.70;79.40;;;;;;5083137;28;20111;-66
2021/03/30 00:07:48;;;;;;;12.23;6.75;;;7.70;79.00;;;;;;5062623;28;20239;-67
2021/03/30 00:10:20;;;;;;;14.55;6.88;;;7.60;79.30;;;;;;5092604;28;20460;-66
2021/03/30 00:12:45;;;;;;;13.88;6.40;;;7.60;79.40;;;;;;5088066;28;20036;-66
2021/03/30 00:15:12;;;;;;;13.57;6.93;;;7.60;79.40;;;;;;5092020;28;20089;-66
2021/03/30 00:17:39;;;;;;;10.98;7.25;;;7.60;79.80;;;;;;5092132;28;20466;-66
2021/03/30 00:20:15;;;;;;;11.57;6.53;;;7.50;80.00;;;;;;5092077;28;20038;-66
2021/03/30 00:22:42;;;;;;;12.23;7.15;;;7.50;80.70;;;;;;5091031;28;20039;-66
2021/03/30 00:25:10;;;;;;;12.68;6.85;;;7.50;80.50;;;;;;5092932;28;20035;-66
2021/03/30 00:27:36;;;;;;;10.98;6.70;;;7.50;80.50;;;;;;5091855;28;20079;-66
2021/03/30 00:30:03;;;;;;;13.25;7.38;;;7.40;80.80;;;;;;5090107;28;20036;-67
2021/03/30 00:32:29;;;;;;;14.45;6.72;;;7.40;81.00;;;;;;5093697;28;20645;-67
2021/03/30 00:34:55;;;;;;;12.13;7.10;;;7.40;81.50;;;;;;5092019;28;20123;-67
2021/03/30 00:37:20;;;;;;;13.25;7.50;;;7.40;81.10;;;;;;5093638;28;20044;-67
2021/03/30 00:39:46;;;;;;;10.65;7.13;;;7.30;81.20;;;;;;5071284;28;20035;-67
2021/03/30 00:42:21;;;;;;;12.88;7.88;;;7.40;81.60;;;;;;5086233;28;20115;-67
2021/03/30 00:44:46;;;;;;;16.98;7.80;;;7.40;81.60;;;;;;5084773;28;20072;-67
2021/03/30 00:47:15;;;;;;;13.73;7.63;;;7.40;81.30;;;;;;5092480;28;20564;-67
2021/03/30 00:49:42;;;;;;;14.38;8.18;;;7.40;81.20;;;;;;5090924;28;20039;-67
2021/03/30 00:52:08;;;;;;;12.35;7.93;;;7.40;81.50;;;;;;5090922;28;20085;-67
2021/03/30 00:54:35;;;;;;;12.13;7.60;;;7.40;81.40;;;;;;5091651;28;20044;-67
2021/03/30 00:57:01;;;;;;;13.13;8.13;;;7.40;81.10;;;;;;5093168;28;20046;-67
2021/03/30 00:59:28;;;;;;;14.55;7.38;;;7.40;81.30;;;;;;5092684;28;20111;-67
2021/03/30 01:01:53;;;;;;;15.30;8.10;;;7.40;81.10;;;;;;5091153;28;20040;-67
2021/03/30 01:04:19;;;;;;;15.18;8.18;;;7.40;81.30;;;;;;5081320;28;20047;-67
2021/03/30 01:06:47;;;;;;;13.50;8.27;;;7.40;80.70;;;;;;5083806;28;20038;-67
2021/03/30 01:09:43;;;;;;;13.13;8.15;;;7.40;80.90;;;;;;5085730;28;20083;-67
2021/03/30 01:12:28;;;;;;;13.15;7.85;;;7.40;80.80;;;;;;5085904;28;20040;-67
2021/03/30 01:15:05;;;;;;;15.32;8.57;;;7.50;81.80;;;;;;5072213;28;20040;-67
2021/03/30 01:17:48;;;;;;;12.15;8.15;;;7.50;80.80;;;;;;5088449;28;20041;-67
2021/03/30 01:20:48;;;;;;;15.35;7.80;;;7.50;79.90;;;;;;5078460;28;20071;-67
2021/03/30 01:23:21;;;;;;;14.73;7.85;;;7.50;79.80;;;;;;5082069;28;20043;-67
2021/03/30 01:25:58;;;;;;;14.90;7.97;;;7.60;79.70;;;;;;5080954;28;20044;-67
2021/03/30 01:28:51;;;;;;;11.95;8.10;;;7.60;80.30;;;;;;5084380;28;20036;-67
2021/03/30 01:31:17;;;;;;;14.32;7.65;;;7.60;79.10;;;;;;5085982;28;20101;-67
2021/03/30 01:33:45;;;;;;;15.85;7.93;;;7.60;78.90;;;;;;5091534;28;20040;-67
2021/03/30 01:36:12;;;;;;;14.15;7.18;;;7.60;78.50;;;;;;5070552;28;20036;-67
2021/03/30 01:38:40;;;;;;;11.63;7.55;;;7.60;78.30;;;;;;5088689;28;20089;-67
2021/03/30 01:41:06;;;;;;;8.80;7.40;;;7.70;77.90;;;;;;5090211;28;20078;-67
2021/03/30 01:43:32;;;;;;;13.07;7.20;;;7.70;78.20;;;;;;5091554;28;20079;-67
2021/03/30 01:45:58;;;;;;;13.15;7.68;;;7.70;77.70;;;;;;5086094;28;20100;-67
2021/03/30 01:48:25;;;;;;;12.05;7.38;;;7.70;78.60;;;;;;5091370;28;20419;-67
2021/03/30 01:50:52;;;;;;;12.68;7.75;;;7.70;77.30;;;;;;5088196;28;20122;-67
2021/03/30 01:53:20;;;;;;;11.63;6.82;;;7.70;77.80;;;;;;5089476;28;20064;-67
2021/03/30 01:55:49;;;;;;;14.57;7.95;;;7.70;78.40;;;;;;5065935;28;20123;-67
2021/03/30 01:58:20;;;;;;;15.18;7.78;;;7.70;78.10;;;;;;5072733;28;20585;-67
2021/03/30 02:00:47;;;;;;;11.13;7.55;;;7.60;79.20;;;;;;5088386;28;20488;-67
2021/03/30 02:03:14;;;;;;;11.18;6.40;;;7.60;79.10;;;;;;5053884;28;20227;-67
2021/03/30 02:05:40;;;;;;;14.18;6.93;;;7.60;79.20;;;;;;5084812;28;20071;-67
2021/03/30 02:08:08;;;;;;;11.25;7.22;;;7.50;79.60;;;;;;5088729;28;20051;-67
2021/03/30 02:10:45;;;;;;;12.93;7.75;;;7.50;79.10;;;;;;5091027;28;20055;-67
2021/03/30 02:13:20;;;;;;;11.73;7.00;;;7.40;78.80;;;;;;5087875;28;20032;-67
2021/03/30 02:15:46;;;;;;;12.77;6.97;;;7.30;79.40;;;;;;5088062;28;20046;-67
2021/03/30 02:18:17;;;;;;;12.30;7.72;;;7.30;78.80;;;;;;5074901;28;20377;-67
2021/03/30 02:20:50;;;;;;;12.10;7.45;;;7.30;78.50;;;;;;5077622;28;20050;-67
2021/03/30 02:23:26;;;;;;;12.02;7.45;;;7.30;78.70;;;;;;5085635;28;20034;-67
2021/03/30 02:25:55;;;;;;;12.43;8.13;;;7.20;79.40;;;;;;5086412;28;20024;-67
2021/03/30 02:28:33;;;;;;;13.77;7.28;;;7.20;79.50;;;;;;5090469;28;20069;-67
2021/03/30 02:31:00;;;;;;;11.65;7.72;;;7.10;79.40;;;;;;5084495;28;20116;-67
2021/03/30 02:33:25;;;;;;;11.70;7.90;;;7.10;79.50;;;;;;5090468;28;20036;-67
2021/03/30 02:35:55;;;;;;;14.43;7.68;;;7.10;80.10;;;;;;5071341;28;20526;-67
2021/03/30 02:38:21;;;;;;;15.25;7.85;;;7.00;79.60;;;;;;5066069;28;20040;-67
2021/03/30 02:40:50;;;;;;;16.58;7.85;;;7.00;79.60;;;;;;5088706;28;20059;-67
2021/03/30 02:43:16;;;;;;;14.35;8.02;;;7.00;79.40;;;;;;5086825;28;20076;-67
2021/03/30 02:45:44;;;;;;;10.00;8.25;;;6.90;79.60;;;;;;5056047;28;20744;-67
2021/03/30 02:48:11;;;;;;;15.32;7.75;;;6.90;79.90;;;;;;5084599;28;20041;-67
2021/03/30 02:50:38;;;;;;;11.85;8.77;;;6.90;80.30;;;;;;5086816;28;20064;-66
2021/03/30 02:53:04;;;;;;;12.40;7.97;;;6.80;80.00;;;;;;5072768;28;20082;-67
2021/03/30 02:55:32;;;;;;;12.82;8.10;;;6.80;80.00;;;;;;5090971;28;20044;-67
2021/03/30 02:57:59;;;;;;;13.48;8.40;;;6.70;80.30;;;;;;5084968;28;20052;-67
2021/03/30 03:00:25;;;;;;;12.07;8.45;;;6.70;80.50;;;;;;5086215;28;20082;-67
2021/03/30 03:02:52;;;;;;;13.30;7.93;;;6.70;81.00;;;;;;5068170;28;20476;-67
2021/03/30 03:05:18;;;;;;;14.52;8.95;;;6.60;80.40;;;;;;5085497;28;20451;-67
2021/03/30 03:07:44;;;;;;;10.23;7.82;;;6.60;80.70;;;;;;5088395;28;20040;-67
2021/03/30 03:10:10;;;;;;;11.48;8.85;;;6.50;81.40;;;;;;5088115;28;20097;-67
2021/03/30 03:12:38;;;;;;;12.60;9.70;;;6.50;81.50;;;;;;5089342;28;20036;-67
2021/03/30 03:15:07;;;;;;;15.55;9.23;;;6.50;81.20;;;;;;5086827;28;20363;-67
2021/03/30 03:17:34;;;;;;;13.68;9.18;;;6.50;81.50;;;;;;5088340;28;20198;-67
2021/03/30 03:20:00;;;;;;;14.40;8.35;;;6.40;81.70;;;;;;5088045;28;20036;-67
2021/03/30 03:22:26;;;;;;;11.48;8.63;;;6.40;81.70;;;;;;5086889;28;20412;-67
2021/03/30 03:24:52;;;;;;;9.55;8.30;;;6.40;82.10;;;;;;5088003;28;20040;-67
2021/03/30 03:27:18;;;;;;;13.50;9.02;;;6.40;81.70;;;;;;5070564;28;20043;-67
2021/03/30 03:29:44;;;;;;;15.50;9.05;;;6.30;82.10;;;;;;5088511;28;20048;-67
2021/03/30 03:32:10;;;;;;;12.60;8.38;;;6.30;81.80;;;;;;5071474;28;20036;-67
2021/03/30 03:34:41;;;;;;;14.48;9.02;;;6.30;81.90;;;;;;5084469;28;20032;-67
2021/03/30 03:37:07;;;;;;;15.60;9.40;;;6.20;82.10;;;;;;5090975;28;20102;-67
2021/03/30 03:39:33;;;;;;;12.90;9.10;;;6.20;82.70;;;;;;5083494;28;20032;-67
2021/03/30 03:41:59;;;;;;;13.50;9.50;;;6.20;82.30;;;;;;5089170;28;20085;-67
2021/03/30 03:44:28;;;;;;;14.00;9.93;;;6.20;82.50;;;;;;5084937;28;20035;-67
2021/03/30 03:46:53;;;;;;;15.20;9.88;;;6.10;83.50;;;;;;5088981;28;20054;-67
2021/03/30 03:49:20;;;;;;;13.40;9.15;;;6.10;83.10;;;;;;5068840;28;20462;-67
2021/03/30 03:51:51;;;;;;;11.55;9.75;;;6.10;83.10;;;;;;5080732;28;20109;-67
2021/03/30 03:54:19;;;;;;;15.95;9.88;;;6.10;83.00;;;;;;5077688;28;20086;-67
2021/03/30 03:56:53;;;;;;;15.07;10.32;;;6.10;82.90;;;;;;5081253;28;20051;-67
2021/03/30 03:59:31;;;;;;;14.43;10.38;;;6.00;82.60;;;;;;5077812;28;20062;-67
2021/03/30 04:02:22;;;;;;;14.90;10.63;;;6.00;83.20;;;;;;5084062;28;20095;-67
2021/03/30 04:05:03;;;;;;;14.93;10.30;;;6.00;83.10;;;;;;5067773;28;20044;-67
2021/03/30 04:07:35;;;;;;;15.20;10.57;;;6.00;83.20;;;;;;5092701;28;20381;-67
2021/03/30 04:10:02;;;;;;;17.30;10.87;;;6.00;83.00;;;;;;5078222;28;20103;-67
2021/03/30 04:12:31;;;;;;;17.42;10.98;;;5.90;83.10;;;;;;5085265;28;20572;-67
2021/03/30 04:15:00;;;;;;;18.08;10.63;;;5.90;83.40;;;;;;5091233;28;20677;-67
2021/03/30 04:17:25;;;;;;;14.00;10.30;;;5.90;83.30;;;;;;5085365;28;20107;-67
2021/03/30 04:19:51;;;;;;;13.88;10.98;;;5.90;83.50;;;;;;5091833;28;20154;-67
2021/03/30 04:22:17;;;;;;;14.80;10.50;;;5.90;83.20;;;;;;5083431;28;20123;-67
2021/03/30 04:24:45;;;;;;;17.25;11.93;;;5.80;83.50;;;;;;5090079;28;20185;-67
2021/03/30 04:27:12;;;;;;;17.38;11.57;;;5.80;83.60;;;;;;5093185;28;20036;-67
2021/03/30 04:29:39;;;;;;;19.45;11.00;;;5.80;83.80;;;;;;5077302;28;20071;-67
2021/03/30 04:32:06;;;;;;;13.70;10.25;;;5.80;83.80;;;;;;5090845;28;20466;-67
2021/03/30 04:34:32;;;;;;;15.70;11.45;;;5.80;84.10;;;;;;5090109;28;20044;-67
2021/03/30 04:36:57;;;;;;;14.25;11.07;;;5.70;84.10;;;;;;5091132;28;20063;-67
2021/03/30 04:39:23;;;;;;;16.33;11.63;;;5.70;84.20;;;;;;5092751;28;20107;-67
2021/03/30 04:41:48;;;;;;;12.48;11.02;;;5.70;84.10;;;;;;5092914;28;20036;-67
2021/03/30 04:44:14;;;;;;;17.25;11.77;;;5.70;84.00;;;;;;5092730;28;20031;-67
2021/03/30 04:46:40;;;;;;;16.02;11.68;;;5.60;83.90;;;;;;5090026;28;20044;-67
2021/03/30 04:49:05;;;;;;;17.77;11.55;;;5.60;84.20;;;;;;5089321;28;20839;-67
2021/03/30 04:51:31;;;;;;;14.82;11.32;;;5.60;83.70;;;;;;5073829;28;20042;-67
2021/03/30 04:53:56;;;;;;;18.00;12.07;;;5.60;84.70;;;;;;5092464;28;20028;-67
2021/03/30 04:56:22;;;;;;;18.10;11.70;;;5.50;84.50;;;;;;5090053;28;20063;-67
2021/03/30 04:58:48;;;;;;;14.23;12.50;;;5.50;84.40;;;;;;5078951;28;20041;-67
2021/03/30 05:01:14;;;;;;;14.73;11.98;;;5.50;84.30;;;;;;5090828;28;20048;-67
2021/03/30 05:03:40;;;;;;;15.77;11.65;;;5.50;84.60;;;;;;5084658;28;20089;-67
2021/03/30 05:06:05;;;;;;;18.25;12.00;;;5.50;84.50;;;;;;5080822;28;20027;-66
2021/03/30 05:08:31;;;;;;;18.70;11.93;;;5.50;84.60;;;;;;5082385;28;20543;-67
2021/03/30 05:10:57;;;;;;;14.93;11.32;;;5.50;84.60;;;;;;5091182;28;20023;-67
2021/03/30 05:13:22;;;;;;;15.32;11.48;;;5.50;84.60;;;;;;5085512;28;20040;-67
2021/03/30 05:15:48;;;;;;;17.35;12.25;;;5.50;84.80;;;;;;5089108;28;20044;-67
2021/03/30 05:18:14;;;;;;;16.55;12.05;;;5.50;84.80;;;;;;5084347;28;20051;-67
2021/03/30 05:20:40;;;;;;;18.45;12.25;;;5.40;84.90;;;;;;5089538;28;20036;-67
2021/03/30 05:23:06;;;;;;;17.55;12.00;;;5.50;84.90;;;;;;5082968;28;20416;-67
2021/03/30 05:25:32;;;;;;;17.13;12.30;;;5.40;84.70;;;;;;5074666;28;20036;-67
2021/03/30 05:27:57;;;;;;;17.70;12.70;;;5.50;85.10;;;;;;5077034;28;20055;-67
2021/03/30 05:30:24;;;;;;;17.73;11.10;;;5.40;85.00;;;;;;5092014;28;20042;-66
2021/03/30 05:32:49;;;;;;;14.50;11.80;;;5.40;84.80;;;;;;5087230;28;20077;-67
2021/03/30 05:35:15;;;;;;;15.85;11.13;;;5.50;85.00;;;;;;5087889;28;20040;-67
2021/03/30 05:37:41;;;;;;;16.63;12.07;;;5.50;85.10;;;;;;5091443;28;20430;-67
2021/03/30 05:40:15;;;;;;;17.63;12.00;;;5.50;85.00;;;;;;5092054;28;20082;-68
2021/03/30 05:42:41;;;;;;;16.25;11.63;;;5.50;85.00;;;;;;5091065;28;20032;-67
2021/03/30 05:45:08;;;;;;;14.65;11.95;;;5.50;85.00;;;;;;5091841;28;20113;-67
2021/03/30 05:47:35;;;;;;;16.10;11.63;;;5.50;85.00;;;;;;5091075;28;20047;-66
2021/03/30 05:50:02;;;;;;;18.25;12.50;;;5.50;84.70;;;;;;5089842;28;20115;-67
2021/03/30 05:52:31;;;;;;;16.33;11.50;;;5.60;84.90;;;;;;5072661;28;20071;-67
2021/03/30 05:54:58;;;;;;;14.18;11.93;;;5.60;84.60;;;;;;5075621;28;20087;-67
2021/03/30 05:57:26;;;;;;;47.47;13.88;;;5.60;84.70;;;;;;5086420;28;20071;-67
2021/03/30 05:59:55;;;;;;;11.95;10.52;;;5.70;84.70;;;;;;5087397;28;20085;-66
2021/03/30 06:02:43;;;;;;;14.70;10.40;;;5.70;84.30;;;;;;5091139;28;20050;-67
2021/03/30 06:05:13;;;;;;;13.02;10.20;;;5.80;84.10;;;;;;5091220;28;20086;-67
2021/03/30 06:07:39;;;;;;;18.63;10.13;;;6.10;83.90;;;;;;5091489;28;20044;-67
2021/03/30 06:10:07;;;;;;;14.35;10.30;;;6.40;83.20;;;;;;5073050;28;20093;-66
2021/03/30 06:12:33;;;;;;;14.60;10.43;;;6.60;81.70;;;;;;5091691;28;20526;-66
2021/03/30 06:15:07;;;;;;;13.90;10.60;;;6.80;81.30;;;;;;5091811;28;20036;-67
2021/03/30 06:17:41;;;;;;;13.07;10.13;;;7.10;81.10;;;;;;5091694;28;20068;-67
2021/03/30 06:20:09;;;;;;;11.77;10.15;;;7.60;79.90;;;;;;5088801;28;20036;-67
2021/03/30 06:22:52;;;;;;;14.05;9.82;;;8.20;78.80;;;;;;5091318;28;20141;-67
2021/03/30 06:25:38;;;;;;;12.73;9.73;;;8.80;76.80;;;;;;5091704;28;20039;-67
2021/03/30 06:28:29;;;;;;;11.35;9.32;;;9.50;75.30;;;;;;5072976;28;20040;-67
2021/03/30 06:31:13;;;;;;;14.35;10.07;;;10.20;72.40;;;;;;5069867;28;20558;-67
2021/03/30 06:33:49;;;;;;;14.70;10.25;;;11.10;69.90;;;;;;5053440;28;20045;-70
2021/03/30 06:36:17;;;;;;;19.42;10.52;;;12.10;65.60;;;;;;5071638;28;20115;-70
2021/03/30 06:39:04;;;;;;;16.10;11.38;;;13.00;62.40;;;;;;5036605;28;20067;-67
2021/03/30 06:41:51;;;;;;;13.32;9.27;;;14.20;57.10;;;;;;5084588;28;20110;-67
2021/03/30 06:44:28;;;;;;;13.40;9.00;;;15.20;55.70;;;;;;5091227;28;20520;-67
2021/03/30 06:47:12;;;;;;;13.50;9.15;;;16.00;54.60;;;;;;5091163;28;20068;-67
2021/03/30 06:49:50;;;;;;;14.43;9.50;;;16.70;52.90;;;;;;5091185;28;20040;-67
2021/03/30 06:52:19;;;;;;;9.85;8.55;;;17.20;52.00;;;;;;5052975;28;20045;-68
2021/03/30 06:54:55;;;;;;;11.07;8.95;;;17.90;48.50;;;;;;5070782;28;20043;-68
2021/03/30 06:57:44;;;;;;;14.30;9.20;;;18.50;48.30;;;;;;5070717;28;20530;-71
2021/03/30 07:00:28;;;;;;;12.63;9.15;;;18.70;42.50;;;;;;5070893;28;20147;-72
2021/03/30 07:03:03;;;;;;;11.73;8.38;;;19.20;46.00;;;;;;5070903;28;20045;-70
2021/03/30 07:05:34;;;;;;;11.77;8.40;;;19.70;47.40;;;;;;5070472;28;20036;-71
2021/03/30 07:08:02;;;;;;;12.57;8.95;;;20.10;43.30;;;;;;5070644;28;20033;-71
2021/03/30 07:10:28;;;;;;;13.88;8.07;;;20.40;43.40;;;;;;5074381;28;20063;-71
2021/03/30 07:12:55;;;;;;;10.82;8.05;;;20.70;41.70;;;;;;5091065;28;20040;-70
2021/03/30 07:15:23;;;;;;;10.43;8.52;;;21.00;40.80;;;;;;5090903;28;20040;-71
2021/03/30 07:17:57;;;;;;;9.70;8.30;;;21.30;42.60;;;;;;5090807;28;20059;-71
2021/03/30 07:20:24;;;;;;;13.07;8.20;;;21.60;39.60;;;;;;5089249;28;20043;-71
2021/03/30 07:22:51;;;;;;;14.32;8.75;;;21.70;37.60;;;;;;5090487;28;20055;-71
2021/03/30 07:25:21;;;;;;;12.43;8.15;;;22.20;39.10;;;;;;5071917;28;20040;-71
2021/03/30 07:28:00;;;;;;;12.13;8.52;;;22.20;38.70;;;;;;5090775;28;20480;-71
2021/03/30 07:30:26;;;;;;;12.13;7.70;;;22.50;36.00;;;;;;5089005;28;20032;-71
2021/03/30 07:32:55;;;;;;;12.60;7.63;;;22.50;38.40;;;;;;5074604;28;20075;-71
2021/03/30 07:35:33;;;;;;;10.95;7.07;;;22.30;37.70;;;;;;5084715;28;20079;-71
2021/03/30 07:38:11;;;;;;;12.77;7.82;;;22.20;34.60;;;;;;5055121;28;20441;-71
2021/03/30 07:40:40;;;;;;;10.88;7.97;;;22.00;38.10;;;;;;5093405;28;20035;-71
2021/03/30 07:43:11;;;;;;;9.07;7.28;;;21.70;39.00;;;;;;5082947;28;20110;-71
2021/03/30 07:45:42;;;;;;;11.38;7.07;;;21.30;40.40;;;;;;5081140;28;20542;-71
2021/03/30 07:48:15;;;;;;;35.97;7.28;;;20.20;42.40;;;;;;5060592;28;20040;-71
2021/03/30 07:51:06;;;;;;;12.75;6.55;;;19.10;44.10;;;;;;5073658;28;20063;-70
2021/03/30 07:53:44;;;;;;;;;;;18.20;43.70;;;;;;5082347;28;20488;-71
2021/03/30 07:56:23;;;;;;;12.48;6.95;;;17.60;49.00;;;;;;5068883;28;20516;-70
2021/03/30 07:58:51;;;;;;;11.02;6.70;;;17.00;49.40;;;;;;5080985;28;20048;-70
2021/03/30 08:01:20;;;;;;;10.00;6.80;;;16.50;49.50;;;;;;5080030;28;20039;-70
2021/03/30 08:03:50;;;;;;;13.27;7.50;;;16.30;51.00;;;;;;5089447;28;20040;-70
2021/03/30 08:06:35;;;;;;;13.82;6.07;;;16.00;52.20;;;;;;5093330;28;20089;-70
2021/03/30 08:09:12;;;;;;;17.08;6.18;;;15.80;53.00;;;;;;5093460;28;20489;-70
2021/03/30 08:11:41;;;;;;;11.02;7.10;;;15.60;53.70;;;;;;5093979;28;20054;-70
2021/03/30 08:14:08;;;;;;;11.60;7.30;;;15.40;53.20;;;;;;5093859;28;20044;-70
2021/03/30 08:16:39;;;;;;;13.93;7.05;;;15.20;53.60;;;;;;5094151;28;20040;-70
2021/03/30 08:19:12;;;;;;;10.90;7.20;;;15.20;54.20;;;;;;5087110;28;20037;-70
2021/03/30 08:22:00;;;;;;;20.05;7.65;;;15.10;55.20;;;;;;5093783;28;20044;-70
2021/03/30 08:24:49;;;;;;;12.50;7.53;;;15.10;55.60;;;;;;5093656;28;20040;-70
2021/03/30 08:27:36;;;;;;;12.57;7.40;;;15.10;55.40;;;;;;5093540;28;20390;-70
2021/03/30 08:30:03;;;;;;;10.57;6.53;;;15.20;56.40;;;;;;5092231;28;20047;-70
2021/03/30 08:32:31;;;;;;;16.10;7.65;;;15.20;56.00;;;;;;5075776;28;20040;-70
2021/03/30 08:34:57;;;;;;;12.95;7.68;;;15.10;54.20;;;;;;5093627;28;20043;-70
2021/03/30 08:37:23;;;;;;;11.65;7.38;;;15.20;56.40;;;;;;5075630;28;20044;-70
2021/03/30 08:39:50;;;;;;;14.35;6.43;;;15.30;56.20;;;;;;5090320;28;20066;-70
2021/03/30 08:42:18;;;;;;;13.63;8.10;;;15.30;56.70;;;;;;5079234;28;20032;-70
2021/03/30 08:44:50;;;;;;;12.93;6.97;;;15.30;56.40;;;;;;5075382;28;20107;-70
2021/03/30 08:47:34;;;;;;;14.20;7.15;;;15.30;56.10;;;;;;5093336;28;20032;-70
2021/03/30 08:50:21;;;;;;;10.95;6.93;;;15.40;55.30;;;;;;5089091;28;20062;-70
2021/03/30 08:52:47;;;;;;;12.63;7.00;;;15.50;55.40;;;;;;5073237;28;20040;-70
2021/03/30 08:55:13;;;;;;;12.82;7.65;;;15.60;55.70;;;;;;5055049;28;20094;-70
2021/03/30 08:57:47;;;;;;;14.07;7.55;;;15.70;55.30;;;;;;5073071;28;20044;-70
2021/03/30 09:00:14;;;;;;;14.13;7.38;;;15.80;54.90;;;;;;5090158;28;20036;-71
2021/03/30 09:02:40;;;;;;;9.60;7.30;;;15.80;54.60;;;;;;5083369;28;20097;-70
2021/03/30 09:05:18;;;;;;;10.55;6.90;;;15.90;55.10;;;;;;5072664;28;20469;-70
2021/03/30 09:07:45;;;;;;;11.75;7.07;;;15.90;54.40;;;;;;5087392;28;20485;-71
2021/03/30 09:10:11;;;;;;;11.52;6.88;;;16.00;55.20;;;;;;5089803;28;20530;-70
2021/03/30 09:12:37;;;;;;;14.70;7.45;;;16.00;54.10;;;;;;5067103;28;20032;-71
2021/03/30 09:15:09;;;;;;;13.07;7.47;;;16.00;53.60;;;;;;5091463;28;20052;-70
2021/03/30 09:17:35;;;;;;;12.60;7.55;;;16.00;52.60;;;;;;5086125;28;20044;-70
2021/03/30 09:20:02;;;;;;;11.60;7.40;;;16.10;54.40;;;;;;5089442;28;20043;-70
2021/03/30 09:25:37;;;;;;;16.83;7.47;;;16.30;54.50;;;;;;5087139;28;20029;-70
2021/03/30 09:28:03;;;;;;;12.00;7.57;;;16.30;53.50;;;;;;5042765;28;20044;-70
2021/03/30 09:30:29;;;;;;;15.07;7.57;;;16.40;54.20;;;;;;5071614;28;20047;-70
2021/03/30 09:32:56;;;;;;;13.45;6.72;;;16.50;54.00;;;;;;5091366;28;20065;-65
2021/03/30 09:35:27;;;;;;;14.05;7.20;;;16.70;53.30;;;;;;5089945;28;20046;-66
2021/03/30 09:37:58;;;;;;;13.73;6.55;;;16.70;53.40;;;;;;5088406;28;20752;-65
2021/03/30 09:40:29;;;;;;;11.20;6.30;;;16.80;52.70;;;;;;5091048;28;20036;-65
2021/03/30 09:42:55;;;;;;;13.57;6.68;;;16.80;53.40;;;;;;5088896;28;20091;-65
2021/03/30 09:45:24;;;;;;;9.60;6.40;;;17.00;52.90;;;;;;5088621;28;20046;-65
2021/03/30 09:47:51;;;;;;;10.70;6.10;;;16.90;53.00;;;;;;5090780;28;20035;-65
2021/03/30 09:50:22;;;;;;;12.73;6.68;;;16.90;52.60;;;;;;5091827;28;20119;-66
2021/03/30 09:52:49;;;;;;;12.88;6.50;;;17.00;52.20;;;;;;5090325;28;20048;-65
2021/03/30 09:55:33;;;;;;;10.38;6.18;;;17.10;52.30;;;;;;5090154;28;20405;-65
2021/03/30 09:58:12;;;;;;;14.85;6.95;;;17.00;51.70;;;;;;5088808;28;20032;-66
2021/03/30 10:00:40;;;;;;;12.13;6.55;;;17.10;51.90;;;;;;5088339;28;20036;-68
2021/03/30 10:03:08;;;;;;;10.55;5.63;;;17.20;51.80;;;;;;5088294;28;20035;-68
2021/03/30 10:05:35;;;;;;;12.05;6.00;;;17.30;50.80;;;;;;5088130;28;20058;-68
2021/03/30 10:08:02;;;;;;;15.10;6.70;;;17.20;51.00;;;;;;5087614;28;20040;-68
2021/03/30 10:10:41;;;;;;;10.20;5.63;;;17.30;51.30;;;;;;5090358;28;20110;-65
2021/03/30 10:13:08;;;;;;;13.07;6.03;;;17.40;51.20;;;;;;5084815;28;20162;-66
2021/03/30 10:15:42;;;;;;;11.52;6.05;;;17.40;48.90;;;;;;5089084;28;20036;-65
2021/03/30 10:18:10;;;;;;;12.15;6.25;;;17.50;51.60;;;;;;5071399;28;20040;-66
2021/03/30 10:20:56;;;;;;;13.07;5.90;;;17.50;51.40;;;;;;5090195;28;20062;-66
2021/03/30 10:23:25;;;;;;;11.75;6.18;;;17.60;50.60;;;;;;5072920;28;20040;-65
2021/03/30 10:25:52;;;;;;;9.32;5.40;;;17.70;50.70;;;;;;5089853;28;20485;-65
2021/03/30 10:28:32;;;;;;;10.30;5.43;;;17.80;50.20;;;;;;5090696;28;20104;-65
2021/03/30 10:31:06;;;;;;;13.18;6.03;;;17.90;49.50;;;;;;5081214;28;20119;-65
2021/03/30 10:33:41;;;;;;;8.38;5.50;;;17.90;50.10;;;;;;5073167;28;20047;-65
2021/03/30 10:36:10;;;;;;;10.05;5.28;;;18.00;48.50;;;;;;5089973;28;20040;-65
2021/03/30 10:38:38;;;;;;;7.97;5.22;;;18.10;48.50;;;;;;5091296;28;20066;-65
2021/03/30 10:41:06;;;;;;;6.18;4.60;;;18.20;48.60;;;;;;5091007;28;20110;-65
2021/03/30 10:43:32;;;;;;;9.07;5.10;;;18.10;47.10;;;;;;5091194;28;20044;-66
2021/03/30 10:45:58;;;;;;;7.45;4.65;;;18.20;47.00;;;;;;5090157;28;20035;-65
2021/03/30 10:48:24;;;;;;;9.00;4.78;;;18.20;46.00;;;;;;5090741;28;20165;-66
2021/03/30 10:50:53;;;;;;;9.27;4.93;;;18.20;46.50;;;;;;5091046;28;20119;-66
2021/03/30 10:53:19;;;;;;;9.68;6.75;;;18.30;47.80;;;;;;5087846;28;20461;-66
2021/03/30 10:55:45;;;;;;;9.98;5.40;;;18.40;47.00;;;;;;5072116;28;20052;-66
2021/03/30 10:58:13;;;;;;;8.07;5.88;;;18.50;47.00;;;;;;5087290;28;20036;-66
2021/03/30 11:00:39;;;;;;;8.20;5.05;;;18.60;49.10;;;;;;5091158;28;20040;-66
2021/03/30 11:03:05;;;;;;;9.45;4.18;;;18.60;41.20;;;;;;5090696;28;20046;-66
2021/03/30 11:05:32;;;;;;;6.90;4.72;;;18.70;46.30;;;;;;5073486;28;20114;-65
2021/03/30 11:07:58;;;;;;;10.57;4.85;;;18.70;45.00;;;;;;5094690;28;20044;-66
2021/03/30 11:10:25;;;;;;;8.10;4.93;;;18.80;47.40;;;;;;5095438;28;20439;-66
2021/03/30 11:12:50;;;;;;;8.77;5.00;;;18.90;47.10;;;;;;5094868;28;20039;-66
2021/03/30 11:15:16;;;;;;;7.65;4.25;;;19.00;46.00;;;;;;5093646;28;20070;-66
2021/03/30 11:17:42;;;;;;;9.13;4.70;;;19.00;46.10;;;;;;5094721;28;20036;-65
2021/03/30 11:20:12;;;;;;;9.82;5.63;;;19.00;45.80;;;;;;5093676;28;20070;-66
2021/03/30 11:22:41;;;;;;;8.77;4.88;;;19.00;45.10;;;;;;5095394;28;20036;-66
2021/03/30 11:25:07;;;;;;;8.38;4.90;;;19.10;46.50;;;;;;5094729;28;20039;-66
2021/03/30 11:27:33;;;;;;;8.57;5.18;;;19.10;45.80;;;;;;5094772;28;20048;-66
2021/03/30 11:35:00;;;;;;;11.77;4.40;;;19.20;44.50;;;;;;5094601;28;20104;-66
2021/03/30 11:39:51;;;;;;;8.95;4.38;;;19.40;43.40;;;;;;5092704;28;20055;-66
2021/03/30 11:42:17;;;;;;;7.13;4.50;;;19.60;39.50;;;;;;5094174;28;20109;-66
2021/03/30 11:44:44;;;;;;;7.88;3.95;;;19.50;43.80;;;;;;5094298;28;20461;-65
2021/03/30 11:47:09;;;;;;;5.43;3.58;;;19.60;45.10;;;;;;5076266;28;20052;-66
2021/03/30 11:49:36;;;;;;;6.78;4.05;;;19.70;43.90;;;;;;5093911;28;20054;-66
2021/03/30 11:52:02;;;;;;;9.40;4.40;;;19.60;41.30;;;;;;5094295;28;20036;-66
2021/03/30 11:54:29;;;;;;;8.05;4.50;;;19.80;44.50;;;;;;5087999;28;20072;-66
2021/03/30 11:56:54;;;;;;;6.55;4.82;;;19.90;44.40;;;;;;5094010;28;20040;-66
2021/03/30 11:59:21;;;;;;;8.68;4.50;;;19.90;41.70;;;;;;5094113;28;20036;-66
2021/03/30 12:01:49;;;;;;;6.68;3.90;;;20.00;43.90;;;;;;5076263;28;20092;-65
2021/03/30 12:04:19;;;;;;;5.38;3.58;;;20.20;43.70;;;;;;5062644;28;20123;-66
2021/03/30 12:06:45;;;;;;;8.73;4.65;;;20.20;41.30;;;;;;5094102;28;20036;-65
2021/03/30 12:09:12;;;;;;;8.13;4.65;;;20.30;43.80;;;;;;5093232;28;20055;-65
2021/03/30 12:11:38;;;;;;;5.18;4.60;;;20.30;43.30;;;;;;5091064;22;20072;-70
2021/03/30 12:14:04;;;;;;;7.50;4.82;;;20.40;43.50;;;;;;5091669;28;20071;-71
2021/03/30 12:16:30;;;;;;;7.03;4.85;;;20.40;43.20;;;;;;5092109;28;20040;-71
2021/03/30 12:18:56;;;;;;;7.88;4.43;;;20.50;42.60;;;;;;5087298;28;20036;-71
2021/03/30 12:21:23;;;;;;;6.40;3.97;;;20.40;41.00;;;;;;5086924;28;20074;-71
2021/03/30 12:23:49;;;;;;;7.05;4.13;;;20.40;41.70;;;;;;5090906;28;20048;-71
2021/03/30 12:26:15;;;;;;;7.95;4.10;;;20.50;43.00;;;;;;5074797;28;20030;-71
2021/03/30 12:28:41;;;;;;;7.78;5.38;;;20.50;42.70;;;;;;5086156;28;20055;-71
2021/03/30 12:31:07;;;;;;;7.57;4.57;;;20.50;40.80;;;;;;5091101;28;20128;-71
2021/03/30 12:33:32;;;;;;;5.95;4.18;;;20.50;42.60;;;;;;5091588;28;20120;-71
2021/03/30 12:35:58;;;;;;;9.10;4.90;;;20.50;37.20;;;;;;5092230;28;20039;-71
2021/03/30 12:38:44;;;;;;;7.20;4.15;;;20.60;37.90;;;;;;5062979;28;20063;-71
2021/03/30 12:41:10;;;;;;;10.75;4.03;;;20.60;43.10;;;;;;5092782;28;20040;-71
2021/03/30 12:43:37;;;;;;;5.47;3.75;;;20.70;43.30;;;;;;5084574;28;20059;-71
2021/03/30 12:46:02;;;;;;;8.35;4.18;;;20.80;39.70;;;;;;5091178;28;20063;-72
2021/03/30 12:48:28;;;;;;;3.53;3.17;;;20.80;40.20;;;;;;5091342;28;20101;-71
2021/03/30 12:50:54;;;;;;;4.55;3.47;;;20.90;40.00;;;;;;5090184;28;20512;-71
2021/03/30 12:53:19;;;;;;;6.07;4.13;;;20.90;40.80;;;;;;5091090;28;20481;-71
2021/03/30 12:55:45;;;;;;;8.35;4.13;;;20.80;40.40;;;;;;5090884;28;20040;-71
2021/03/30 12:58:10;;;;;;;5.45;4.15;;;20.80;40.70;;;;;;5090971;28;20111;-71
2021/03/30 13:00:36;;;;;;;6.80;4.38;;;20.80;42.40;;;;;;5090490;28;20035;-71
2021/03/30 13:03:02;;;;;;;7.78;4.25;;;20.80;42.80;;;;;;5085801;28;20055;-71
2021/03/30 13:05:27;;;;;;;7.35;4.10;;;20.90;41.70;;;;;;5075031;28;20042;-71